createdAt,value
2019-02-19T00:02:20.224Z,95262.14
2019-02-19T00:04:49.751Z,95254.16
2019-02-19T00:07:19.270Z,95264.11
2019-02-19T00:09:48.776Z,95263.09
2019-02-19T00:12:18.296Z,95267.85
2019-02-19T00:14:47.797Z,95263.09
2019-02-19T00:17:17.318Z,95269.31
2019-02-19T00:19:46.813Z,95264.23
2019-02-19T00:22:16.330Z,95268.91
2019-02-19T00:24:45.847Z,95273.03
2019-02-19T00:27:15.377Z,95267.02
2019-02-19T00:29:44.876Z,95267.83
2019-02-19T00:32:14.402Z,95264.89
2019-02-19T00:34:43.939Z,95267.85
2019-02-19T00:37:13.476Z,95268.85
2019-02-19T00:39:43.035Z,95264.55
2019-02-19T00:42:12.531Z,95264.77
2019-02-19T00:44:42.078Z,95265.72
2019-02-19T00:47:11.583Z,95270.89
2019-02-19T00:49:41.102Z,95269.34
2019-02-19T00:52:10.620Z,95273.13
2019-02-19T00:54:40.153Z,95271.27
2019-02-19T00:57:09.643Z,95270.80
2019-02-19T00:59:39.373Z,95274.52
2019-02-19T01:02:08.884Z,95272.50
2019-02-19T01:04:38.384Z,95276.41
2019-02-19T01:07:08.185Z,95280.87
2019-02-19T01:09:37.683Z,95274.68
2019-02-19T01:12:07.258Z,95280.21
2019-02-19T01:14:36.781Z,95281.09
2019-02-19T01:17:06.399Z,95278.22
2019-02-19T01:19:35.970Z,95278.50
2019-02-19T01:22:05.462Z,95279.34
2019-02-19T01:24:35.005Z,95276.89
2019-02-19T01:27:04.496Z,95274.27
2019-02-19T01:29:34.020Z,95278.89
2019-02-19T01:32:03.535Z,95277.64
2019-02-19T01:34:52.397Z,95280.20
2019-02-19T01:37:41.255Z,95280.02
2019-02-19T01:40:10.928Z,95281.13
2019-02-19T01:42:40.447Z,95285.48
2019-02-19T01:45:10.337Z,95283.11
2019-02-19T01:47:39.839Z,95282.45
2019-02-19T01:50:10.482Z,95286.42
2019-02-19T01:52:40.033Z,95285.55
2019-02-19T01:55:09.857Z,95282.64
2019-02-19T01:57:58.783Z,95289.81
2019-02-19T02:00:28.337Z,95291.25
2019-02-19T02:02:57.838Z,95289.85
2019-02-19T02:05:46.721Z,95288.84
2019-02-19T02:08:27.225Z,95107.09
2019-02-19T02:10:56.746Z,95289.23
2019-02-19T02:13:26.885Z,95295.58
2019-02-19T02:15:56.584Z,95287.08
2019-02-19T02:18:26.085Z,95286.83
2019-02-19T02:20:55.587Z,95285.93
2019-02-19T02:23:25.130Z,95280.89
2019-02-19T02:26:14.559Z,95291.97
2019-02-19T02:28:56.625Z,95115.91
2019-02-19T02:31:26.129Z,95296.27
2019-02-19T02:33:55.665Z,95299.91
2019-02-19T02:36:25.163Z,95295.14
2019-02-19T02:38:54.894Z,95290.46
2019-02-19T02:41:24.386Z,95297.66
2019-02-19T02:43:53.906Z,95285.70
2019-02-19T02:46:23.402Z,95296.81
2019-02-19T02:48:52.920Z,95296.34
2019-02-19T02:51:23.138Z,95298.22
2019-02-19T02:53:52.681Z,95293.00
2019-02-19T02:56:22.235Z,95297.95
2019-02-19T02:58:51.758Z,95294.88
2019-02-19T03:01:21.249Z,95295.42
2019-02-19T03:03:51.850Z,95301.58
2019-02-19T03:06:25.695Z,95304.53
2019-02-19T03:08:55.184Z,95306.62
2019-02-19T03:11:24.710Z,95303.47
2019-02-19T03:14:13.576Z,95308.81
2019-02-19T03:16:43.098Z,95312.20
2019-02-19T03:19:31.976Z,95309.52
2019-02-19T03:22:20.836Z,95315.92
2019-02-19T03:24:50.356Z,95314.39
2019-02-19T03:27:19.854Z,95319.41
2019-02-19T03:29:49.400Z,95325.17
2019-02-19T03:32:18.985Z,95327.34
2019-02-19T03:34:48.533Z,95329.31
2019-02-19T03:37:18.091Z,95324.11
2019-02-19T03:39:47.596Z,95326.67
2019-02-19T03:42:36.425Z,95326.76
2019-02-19T03:45:09.328Z,95221.63
2019-02-19T03:47:38.850Z,95333.91
2019-02-19T03:50:08.441Z,95337.66
2019-02-19T03:52:39.194Z,95334.59
2019-02-19T03:55:28.038Z,95342.81
2019-02-19T03:57:57.608Z,95297.61
2019-02-19T04:00:27.193Z,95344.98
2019-02-19T04:02:56.708Z,95349.51
2019-02-19T04:05:26.530Z,95349.51
2019-02-19T04:08:15.378Z,95349.86
2019-02-19T04:10:44.891Z,95348.08
2019-02-19T04:13:14.386Z,95349.56
2019-02-19T04:15:44.194Z,95354.09
2019-02-19T04:18:13.712Z,95359.56
2019-02-19T04:20:43.281Z,95362.95
2019-02-19T04:23:12.805Z,95357.98
2019-02-19T04:25:42.308Z,95357.84
2019-02-19T04:28:11.810Z,95360.39
2019-02-19T04:30:41.339Z,95364.23
2019-02-19T04:33:30.913Z,95362.73
2019-02-19T04:36:00.435Z,95361.66
2019-02-19T04:38:29.926Z,95362.25
2019-02-19T04:40:59.464Z,95364.38
2019-02-19T04:43:28.950Z,95362.70
2019-02-19T04:45:58.475Z,95364.44
2019-02-19T04:48:27.971Z,95366.48
2019-02-19T04:50:57.498Z,95364.67
2019-02-19T04:53:27.587Z,95363.52
2019-02-19T04:55:57.128Z,95363.17
2019-02-19T04:58:26.635Z,95363.23
2019-02-19T05:00:56.158Z,95361.36
2019-02-19T05:03:25.652Z,95370.38
2019-02-19T05:05:55.936Z,95363.07
2019-02-19T05:08:37.957Z,95362.53
2019-02-19T05:11:26.832Z,95364.59
2019-02-19T05:13:56.347Z,95300.05
2019-02-19T05:16:25.895Z,95360.06
2019-02-19T05:18:55.397Z,95359.07
2019-02-19T05:21:24.913Z,95362.45
2019-02-19T05:23:54.404Z,95361.38
2019-02-19T05:26:43.764Z,95360.19
2019-02-19T05:29:13.340Z,95364.86
2019-02-19T05:31:42.840Z,95366.46
2019-02-19T05:37:13.142Z,95277.96
2019-02-19T05:39:42.661Z,95374.32
2019-02-19T05:42:12.162Z,95370.22
2019-02-19T05:45:01.020Z,95371.14
2019-02-19T05:47:49.880Z,95377.00
2019-02-19T05:50:32.214Z,95379.95
2019-02-19T05:53:01.733Z,95328.31
2019-02-19T05:56:03.124Z,95380.98
2019-02-19T06:01:46.385Z,95230.43
2019-02-19T06:04:15.904Z,95390.76
2019-02-19T06:06:45.670Z,95388.34
2019-02-19T06:09:16.071Z,95393.01
2019-02-19T06:12:04.948Z,95388.20
2019-02-19T06:14:34.442Z,95396.38
2019-02-19T06:17:03.958Z,95398.03
2019-02-19T06:19:33.448Z,95388.11
2019-02-19T06:22:02.956Z,95395.59
2019-02-19T06:24:32.479Z,95404.72
2019-02-19T06:27:01.992Z,95403.45
2019-02-19T06:29:31.499Z,95405.13
2019-02-19T06:32:01.003Z,95410.26
2019-02-19T06:34:30.496Z,95408.05
2019-02-19T06:37:00.010Z,95407.16
2019-02-19T06:39:29.520Z,95407.59
2019-02-19T06:41:59.033Z,95402.02
2019-02-19T06:44:28.549Z,95399.84
2019-02-19T06:46:58.057Z,95414.98
2019-02-19T06:49:27.565Z,95408.15
2019-02-19T06:51:57.083Z,95402.67
2019-02-19T06:54:26.599Z,95394.02
2019-02-19T06:56:56.141Z,95393.90
2019-02-19T06:59:25.622Z,95396.17
2019-02-19T07:02:12.908Z,95395.95
2019-02-19T07:04:44.061Z,95386.86
2019-02-19T07:07:13.570Z,95388.45
2019-02-19T07:09:43.076Z,95394.05
2019-02-19T07:12:12.581Z,95401.11
2019-02-19T07:14:42.076Z,95409.36
2019-02-19T07:17:15.714Z,95399.14
2019-02-19T07:19:42.821Z,95400.45
2019-02-19T07:22:12.331Z,95396.34
2019-02-19T07:24:41.826Z,95389.84
2019-02-19T07:27:11.349Z,95388.52
2019-02-19T07:29:40.871Z,95402.61
2019-02-19T07:32:29.746Z,95404.03
2019-02-19T07:34:59.233Z,95408.94
2019-02-19T07:37:28.764Z,95401.80
2019-02-19T07:43:06.157Z,95230.17
2019-02-19T07:45:35.672Z,95406.14
2019-02-19T07:48:05.199Z,95403.67
2019-02-19T07:50:54.064Z,95398.69
2019-02-19T07:53:23.578Z,95410.36
2019-02-19T07:55:53.071Z,95404.36
2019-02-19T07:58:22.583Z,95400.13
2019-02-19T08:00:52.061Z,95394.87
2019-02-19T08:03:21.569Z,95381.33
2019-02-19T08:06:10.392Z,95381.59
2019-02-19T08:08:41.160Z,95370.02
2019-02-19T08:11:11.071Z,95380.09
2019-02-19T08:13:40.578Z,95373.72
2019-02-19T08:16:10.094Z,95375.27
2019-02-19T08:18:39.590Z,95380.93
2019-02-19T08:21:09.078Z,95376.03
2019-02-19T08:23:39.370Z,95383.66
2019-02-19T08:26:08.916Z,95379.95
2019-02-19T08:28:38.411Z,95378.96
2019-02-19T08:31:07.972Z,95377.02
2019-02-19T08:33:37.519Z,95369.34
2019-02-19T08:36:07.603Z,95361.16
2019-02-19T08:38:37.381Z,95368.84
2019-02-19T08:41:06.892Z,95372.09
2019-02-19T08:43:36.373Z,95372.73
2019-02-19T08:46:05.930Z,95374.80
2019-02-19T08:48:35.816Z,95366.55
2019-02-19T08:51:05.297Z,95364.08
2019-02-19T08:53:34.805Z,95364.41
2019-02-19T08:56:04.330Z,95368.22
2019-02-19T08:58:33.845Z,95367.91
2019-02-19T09:01:04.138Z,95366.51
2019-02-19T09:03:33.622Z,95370.60
2019-02-19T09:06:03.117Z,95365.56
2019-02-19T09:08:34.369Z,95374.21
2019-02-19T09:11:03.917Z,95373.83
2019-02-19T09:13:33.462Z,95372.61
2019-02-19T09:16:03.013Z,95371.03
2019-02-19T09:18:32.621Z,95379.70
2019-02-19T09:21:02.125Z,95366.56
2019-02-19T09:23:31.643Z,95368.19
2019-02-19T09:26:01.719Z,95366.80
2019-02-19T09:28:31.266Z,95366.95
2019-02-19T09:31:00.754Z,95367.69
2019-02-19T09:33:30.284Z,95368.27
2019-02-19T09:36:00.029Z,95364.78
2019-02-19T09:38:29.981Z,95363.71
2019-02-19T09:40:59.504Z,95367.08
2019-02-19T09:43:35.342Z,95370.28
2019-02-19T09:46:00.292Z,95372.45
2019-02-19T09:48:29.805Z,95375.58
2019-02-19T09:50:59.296Z,95368.55
2019-02-19T09:53:28.812Z,95363.45
2019-02-19T09:55:58.305Z,95362.00
2019-02-19T09:58:27.849Z,95361.70
2019-02-19T10:00:57.368Z,95359.95
2019-02-19T10:03:27.554Z,95367.20
2019-02-19T10:05:57.036Z,95369.42
2019-02-19T10:08:26.542Z,95371.07
2019-02-19T10:10:56.048Z,95369.89
2019-02-19T10:13:25.539Z,95371.06
2019-02-19T10:15:55.782Z,95371.24
2019-02-19T10:18:25.288Z,95367.65
2019-02-19T10:20:54.783Z,95371.52
2019-02-19T10:24:02.669Z,95369.66
2019-02-19T10:26:51.517Z,95373.98
2019-02-19T10:29:21.120Z,95366.74
2019-02-19T10:31:50.614Z,95366.22
2019-02-19T10:34:20.122Z,95370.88
2019-02-19T10:36:49.615Z,95366.06
2019-02-19T10:39:19.127Z,95364.48
2019-02-19T10:41:48.648Z,95365.48
2019-02-19T10:44:18.185Z,95369.47
2019-02-19T10:46:47.676Z,95370.75
2019-02-19T10:49:17.184Z,95368.20
2019-02-19T10:51:46.679Z,95372.48
2019-02-19T10:54:16.187Z,95362.08
2019-02-19T10:56:45.711Z,95359.97
2019-02-19T10:59:15.220Z,95357.33
2019-02-19T11:01:44.849Z,95342.25
2019-02-19T11:04:14.358Z,95346.51
2019-02-19T11:06:44.359Z,95343.64
2019-02-19T11:09:13.879Z,95341.05
2019-02-19T11:11:43.399Z,95336.88
2019-02-19T11:14:12.915Z,95343.22
2019-02-19T11:16:42.422Z,95343.50
2019-02-19T11:19:13.151Z,95331.73
2019-02-19T11:21:42.645Z,95330.45
2019-02-19T11:24:12.187Z,95325.34
2019-02-19T11:26:41.671Z,95330.42
2019-02-19T11:29:11.179Z,95331.78
2019-02-19T11:31:41.768Z,95329.64
2019-02-19T11:34:12.642Z,95324.22
2019-02-19T11:36:42.159Z,95325.78
2019-02-19T11:39:13.612Z,95329.56
2019-02-19T11:41:43.113Z,95315.86
2019-02-19T11:44:12.606Z,95327.66
2019-02-19T11:46:42.141Z,95319.23
2019-02-19T11:49:30.973Z,95312.48
2019-02-19T11:52:00.511Z,95316.05
2019-02-19T11:54:30.027Z,95306.73
2019-02-19T11:56:59.515Z,95316.75
2019-02-19T11:59:29.024Z,95318.23
2019-02-19T12:01:59.014Z,95310.83
2019-02-19T12:04:28.604Z,95305.30
2019-02-19T12:06:58.088Z,95303.16
2019-02-19T12:09:27.593Z,95304.41
2019-02-19T12:11:57.082Z,95299.67
2019-02-19T12:14:26.599Z,95291.59
2019-02-19T12:16:56.830Z,95287.52
2019-02-19T12:19:26.353Z,95282.91
2019-02-19T12:21:56.060Z,95285.59
2019-02-19T12:24:25.562Z,95283.84
2019-02-19T12:27:14.387Z,95285.84
2019-02-19T12:29:43.899Z,95173.94
2019-02-19T12:32:13.387Z,95282.52
2019-02-19T12:34:42.896Z,95288.66
2019-02-19T12:37:12.798Z,95279.80
2019-02-19T12:39:42.300Z,95277.97
2019-02-19T12:42:11.827Z,95273.67
2019-02-19T12:44:41.334Z,95275.48
2019-02-19T12:47:10.833Z,95278.75
2019-02-19T12:49:41.063Z,95273.28
2019-02-19T12:52:10.574Z,95273.48
2019-02-19T12:54:40.112Z,95283.95
2019-02-19T12:57:09.598Z,95278.92
2019-02-19T12:59:39.106Z,95271.09
2019-02-19T13:02:09.238Z,95267.46
2019-02-19T13:04:38.748Z,95273.05
2019-02-19T13:07:08.249Z,95270.23
2019-02-19T13:09:37.735Z,95263.16
2019-02-19T13:12:07.252Z,95266.28
2019-02-19T13:14:37.421Z,95262.41
2019-02-19T13:17:06.958Z,95261.00
2019-02-19T13:19:36.443Z,95261.44
2019-02-19T13:22:05.997Z,95255.14
2019-02-19T13:24:35.530Z,95253.61
2019-02-19T13:27:05.696Z,95245.36
2019-02-19T13:29:35.214Z,95246.11
2019-02-19T13:32:04.703Z,95247.78
2019-02-19T13:34:34.230Z,95241.98
2019-02-19T13:37:03.738Z,95247.36
2019-02-19T13:39:33.965Z,95242.25
2019-02-19T13:42:03.499Z,95246.13
2019-02-19T13:44:32.997Z,95253.26
2019-02-19T13:47:02.507Z,95243.17
2019-02-19T13:49:31.989Z,95246.61
2019-02-19T13:52:03.844Z,95247.78
2019-02-19T13:54:33.448Z,95243.31
2019-02-19T13:57:02.962Z,95247.27
2019-02-19T13:59:32.731Z,95242.91
2019-02-19T14:02:02.271Z,95246.76
2019-02-19T14:04:31.751Z,95246.44
2019-02-19T14:07:01.267Z,95247.24
2019-02-19T14:09:50.092Z,95242.09
2019-02-19T14:12:31.077Z,95252.97
2019-02-19T14:15:02.233Z,95252.95
2019-02-19T14:17:31.743Z,95252.87
2019-02-19T14:20:02.873Z,95255.13
2019-02-19T14:22:34.094Z,95252.73
2019-02-19T14:25:21.118Z,95257.38
2019-02-19T14:28:02.253Z,95249.63
2019-02-19T14:30:33.403Z,95252.22
2019-02-19T14:33:23.034Z,95248.23
2019-02-19T14:35:52.300Z,95242.84
2019-02-19T14:38:35.465Z,95240.37
2019-02-19T14:41:22.352Z,95246.11
2019-02-19T14:43:57.086Z,95246.88
2019-02-19T14:46:31.187Z,95254.69
2019-02-19T14:49:18.335Z,95249.23
2019-02-19T14:51:50.548Z,95250.81
2019-02-19T14:54:37.636Z,95253.37
2019-02-19T14:57:24.934Z,95253.28
2019-02-19T14:59:56.838Z,95253.16
2019-02-19T15:02:39.822Z,95249.20
2019-02-19T15:05:47.716Z,95248.30
2019-02-19T15:08:34.078Z,95133.66
2019-02-19T15:11:41.967Z,95139.64
2019-02-19T15:14:24.651Z,95251.88
2019-02-19T15:17:11.648Z,95248.83
2019-02-19T15:19:45.421Z,95250.94
2019-02-19T15:22:14.694Z,95241.80
2019-02-19T15:24:45.848Z,95243.47
2019-02-19T15:30:19.086Z,95241.92
2019-02-19T15:32:59.814Z,95240.55
2019-02-19T15:35:36.686Z,95240.88
2019-02-19T15:38:13.565Z,95241.75
2019-02-19T15:40:42.828Z,95242.30
2019-02-19T15:43:19.978Z,95239.03
2019-02-19T15:45:49.275Z,95235.24
2019-02-19T15:48:38.309Z,95237.12
2019-02-19T15:51:25.637Z,95240.34
2019-02-19T15:53:56.769Z,95239.72
2019-02-19T15:56:36.818Z,95238.27
2019-02-19T15:59:22.505Z,95241.59
2019-02-19T16:01:56.580Z,95242.08
2019-02-19T16:04:39.849Z,95233.41
2019-02-19T16:07:10.993Z,95236.89
2019-02-19T16:09:48.409Z,95243.94
2019-02-19T16:12:19.573Z,95235.75
2019-02-19T16:14:48.862Z,95230.84
2019-02-19T16:17:31.896Z,95229.71
2019-02-19T16:20:15.795Z,95227.41
2019-02-19T16:22:59.892Z,95224.45
2019-02-19T16:25:42.520Z,95225.94
2019-02-19T16:28:22.240Z,95228.34
2019-02-19T16:30:59.341Z,95232.70
2019-02-19T16:33:34.144Z,95236.77
2019-02-19T16:36:14.087Z,95241.77
2019-02-19T16:39:01.290Z,95236.39
2019-02-19T16:41:41.291Z,95236.98
2019-02-19T16:44:28.719Z,95237.83
2019-02-19T16:47:05.775Z,95237.11
2019-02-19T16:49:49.612Z,95240.00
2019-02-19T16:52:20.981Z,95239.63
2019-02-19T16:54:52.100Z,95252.47
2019-02-19T16:57:23.227Z,95256.00
2019-02-19T16:59:58.291Z,95251.61
2019-02-19T17:02:29.463Z,95253.45
2019-02-19T17:05:01.416Z,95249.23
2019-02-19T17:07:30.706Z,95255.70
2019-02-19T17:10:01.868Z,95260.44
2019-02-19T17:12:32.988Z,95270.33
2019-02-19T17:15:07.071Z,95272.00
2019-02-19T17:17:38.241Z,95275.78
2019-02-19T17:20:26.153Z,95277.92
2019-02-19T17:22:45.821Z,95278.48
2019-02-19T17:25:46.800Z,95285.23
2019-02-19T17:28:17.944Z,95282.67
2019-02-19T17:30:47.198Z,95285.28
2019-02-19T17:33:34.058Z,95284.65
2019-02-19T17:39:16.441Z,95297.88
2019-02-19T17:41:47.600Z,95299.06
2019-02-19T17:44:33.646Z,95296.36
2019-02-19T17:47:14.527Z,95304.30
2019-02-19T17:49:45.691Z,95311.09
2019-02-19T17:52:16.812Z,95306.72
2019-02-19T17:54:47.980Z,95309.47
2019-02-19T17:57:19.106Z,95309.47
2019-02-19T17:59:52.774Z,95312.80
2019-02-19T18:02:29.556Z,95320.09
2019-02-19T18:05:06.125Z,95305.13
2019-02-19T18:07:53.128Z,95314.20
2019-02-19T18:10:31.372Z,95320.73
2019-02-19T18:13:05.268Z,95317.89
2019-02-19T18:15:36.397Z,95313.95
2019-02-19T18:18:13.266Z,95312.20
2019-02-19T18:20:47.649Z,95315.77
2019-02-19T18:23:13.996Z,95314.13
2019-02-19T18:25:43.509Z,95320.01
2019-02-19T18:28:13.165Z,95324.06
2019-02-19T18:30:42.690Z,95326.73
2019-02-19T18:33:12.210Z,95334.77
2019-02-19T18:35:41.744Z,95335.95
2019-02-19T18:38:11.223Z,95341.69
2019-02-19T18:41:00.076Z,95339.59
2019-02-19T18:43:29.592Z,95338.56
2019-02-19T18:45:59.093Z,95338.76
2019-02-19T18:48:28.563Z,95342.20
2019-02-19T18:50:58.662Z,95340.65
2019-02-19T18:53:47.710Z,95344.48
2019-02-19T18:56:17.216Z,95341.73
2019-02-19T18:59:06.063Z,95344.27
2019-02-19T19:01:35.582Z,95341.10
2019-02-19T19:04:05.118Z,95343.71
2019-02-19T19:06:34.606Z,95337.55
2019-02-19T19:09:05.615Z,95342.66
2019-02-19T19:11:35.124Z,95352.40
2019-02-19T19:14:04.664Z,95349.16
2019-02-19T19:17:05.920Z,95353.80
2019-02-19T19:19:48.076Z,95362.22
2019-02-19T19:22:36.909Z,95283.12
2019-02-19T19:25:07.736Z,95368.89
2019-02-19T19:27:37.212Z,95372.32
2019-02-19T19:30:16.028Z,95372.47
2019-02-19T19:32:45.535Z,95373.11
2019-02-19T19:35:15.048Z,95380.02
2019-02-19T19:37:44.526Z,95381.16
2019-02-19T19:40:14.122Z,95382.47
2019-02-19T19:43:02.958Z,95379.81
2019-02-19T19:45:51.837Z,95381.30
2019-02-19T19:48:21.530Z,95388.34
2019-02-19T19:50:51.155Z,95385.27
2019-02-19T19:53:20.688Z,95392.57
2019-02-19T19:55:50.216Z,95392.19
2019-02-19T19:58:19.695Z,95398.46
2019-02-19T20:00:49.250Z,95391.09
2019-02-19T20:03:18.743Z,95398.59
2019-02-19T20:05:48.258Z,95396.57
2019-02-19T20:08:17.741Z,95404.36
2019-02-19T20:10:47.279Z,95406.04
2019-02-19T20:13:36.137Z,95404.91
2019-02-19T20:16:18.690Z,95279.59
2019-02-19T20:18:48.177Z,95412.49
2019-02-19T20:21:26.203Z,95414.40
2019-02-19T20:23:50.066Z,95420.01
2019-02-19T20:26:19.732Z,95422.52
2019-02-19T20:28:49.212Z,95424.77
2019-02-19T20:31:18.738Z,95423.57
2019-02-19T20:33:48.217Z,95425.95
2019-02-19T20:36:17.708Z,95430.38
2019-02-19T20:38:47.201Z,95436.87
2019-02-19T20:41:16.722Z,95436.95
2019-02-19T20:43:46.202Z,95435.75
2019-02-19T20:46:35.075Z,95443.98
2019-02-19T20:49:23.917Z,95325.97
2019-02-19T20:52:06.291Z,95441.78
2019-02-19T20:54:35.802Z,95448.05
2019-02-19T20:57:05.319Z,95452.50
2019-02-19T20:59:34.824Z,95451.94
2019-02-19T21:02:04.479Z,95444.70
2019-02-19T21:04:33.978Z,95447.55
2019-02-19T21:07:03.508Z,95443.98
2019-02-19T21:09:52.342Z,95445.24
2019-02-19T21:12:41.187Z,95447.70
2019-02-19T21:15:23.260Z,95443.99
2019-02-19T21:18:13.644Z,95439.77
2019-02-19T21:20:43.392Z,95365.78
2019-02-19T21:23:12.881Z,95451.36
2019-02-19T21:25:42.405Z,95456.36
2019-02-19T21:28:11.926Z,95450.55
2019-02-19T21:30:41.409Z,95441.39
2019-02-19T21:33:10.928Z,95443.45
2019-02-19T21:35:40.414Z,95449.52
2019-02-19T21:38:09.924Z,95451.18
2019-02-19T21:40:39.415Z,95451.33
2019-02-19T21:43:09.043Z,95451.06
2019-02-19T21:45:38.561Z,95452.60
2019-02-19T21:48:08.062Z,95463.48
2019-02-19T21:50:37.546Z,95463.22
2019-02-19T21:53:07.090Z,95468.55
2019-02-19T21:55:36.599Z,95462.42
2019-02-19T21:58:06.239Z,95456.26
2019-02-19T22:00:35.740Z,95459.44
2019-02-19T22:03:05.265Z,95463.11
2019-02-19T22:05:34.747Z,95459.80
2019-02-19T22:08:04.256Z,95465.33
2019-02-19T22:10:44.686Z,95467.20
2019-02-19T22:13:14.188Z,95466.52
2019-02-19T22:15:43.711Z,95462.17
2019-02-19T22:18:13.216Z,95452.00
2019-02-19T22:20:58.971Z,95462.64
2019-02-19T22:23:28.595Z,95456.10
2019-02-19T22:25:58.100Z,95466.50
2019-02-19T22:28:27.659Z,95472.41
2019-02-19T22:30:57.142Z,95469.24
2019-02-19T22:33:26.657Z,95467.47
2019-02-19T22:35:56.148Z,95462.88
2019-02-19T22:38:25.660Z,95467.59
2019-02-19T22:40:55.588Z,95465.83
2019-02-19T22:43:25.136Z,95468.43
2019-02-19T22:45:54.615Z,95465.27
2019-02-19T22:48:24.150Z,95475.28
2019-02-19T22:50:53.728Z,95463.70
2019-02-19T22:54:01.620Z,95463.47
2019-02-19T22:56:32.754Z,95465.00
2019-02-19T22:59:02.241Z,95468.06
2019-02-19T23:01:33.528Z,95465.83
2019-02-19T23:04:03.044Z,95460.95
2019-02-19T23:06:52.607Z,95464.88
2019-02-19T23:09:22.174Z,95376.25
2019-02-19T23:11:51.682Z,95471.86
2019-02-19T23:14:21.177Z,95475.15
2019-02-19T23:16:50.696Z,95478.34
2019-02-19T23:19:20.207Z,95487.06
2019-02-19T23:21:49.694Z,95481.54
2019-02-19T23:24:19.185Z,95483.53
2019-02-19T23:26:49.218Z,95482.23
2019-02-19T23:29:18.709Z,95484.47
2019-02-19T23:31:48.200Z,95481.06
2019-02-19T23:34:17.716Z,95474.37
2019-02-19T23:36:48.864Z,95480.21
2019-02-19T23:39:18.378Z,95478.80
2019-02-19T23:41:47.862Z,95482.84
2019-02-19T23:44:17.371Z,95489.42
2019-02-19T23:46:46.858Z,95476.69
2019-02-19T23:49:16.383Z,95492.95
2019-02-19T23:51:45.900Z,95494.38
2019-02-19T23:54:15.405Z,95494.15
2019-02-19T23:56:44.920Z,95491.66
2019-02-19T23:59:14.447Z,95489.90
